sensor_id;sensor_type;location;lat;lon;timestamp;pressure;altitude;pressure_sealevel;temperature;humidity
74973;BME280;63529;56.320;43.990;2022-12-05T00:02:12;102938.72;;;-11.24;61.34
74973;BME280;63529;56.320;43.990;2022-12-05T00:04:38;102942.97;;;-11.23;61.75
74973;BME280;63529;56.320;43.990;2022-12-05T00:07:03;102941.28;;;-11.24;61.78
74973;BME280;63529;56.320;43.990;2022-12-05T00:09:29;102939.59;;;-11.25;61.59
74973;BME280;63529;56.320;43.990;2022-12-05T00:11:55;102942.13;;;-11.24;61.61
74973;BME280;63529;56.320;43.990;2022-12-05T00:14:21;102943.03;;;-11.25;61.68
74973;BME280;63529;56.320;43.990;2022-12-05T00:16:47;102943.06;;;-11.26;61.72
74973;BME280;63529;56.320;43.990;2022-12-05T00:19:14;102948.97;;;-11.23;61.82
74973;BME280;63529;56.320;43.990;2022-12-05T00:21:41;102956.75;;;-11.24;61.59
74973;BME280;63529;56.320;43.990;2022-12-05T00:24:10;102952.56;;;-11.27;61.83
74973;BME280;63529;56.320;43.990;2022-12-05T00:26:36;102947.41;;;-11.27;61.57
74973;BME280;63529;56.320;43.990;2022-12-05T00:29:02;102943.06;;;-11.26;61.69
74973;BME280;63529;56.320;43.990;2022-12-05T00:31:29;102937.91;;;-11.26;61.76
74973;BME280;63529;56.320;43.990;2022-12-05T00:33:57;102943.06;;;-11.26;61.68
74973;BME280;63529;56.320;43.990;2022-12-05T00:36:26;102933.69;;;-11.29;61.97
74973;BME280;63529;56.320;43.990;2022-12-05T00:38:54;102936.13;;;-11.24;62.17
74973;BME280;63529;56.320;43.990;2022-12-05T00:41:25;102939.66;;;-11.27;62.05
74973;BME280;63529;56.320;43.990;2022-12-05T00:43:52;102936.25;;;-11.27;61.95
74973;BME280;63529;56.320;43.990;2022-12-05T00:46:21;102946.50;;;-11.26;62.10
74973;BME280;63529;56.320;43.990;2022-12-05T00:48:48;102943.91;;;-11.26;62.08
74973;BME280;63529;56.320;43.990;2022-12-05T00:51:18;102943.06;;;-11.26;61.78
74973;BME280;63529;56.320;43.990;2022-12-05T00:53:45;102934.50;;;-11.27;61.82
74973;BME280;63529;56.320;43.990;2022-12-05T00:56:22;102936.25;;;-11.27;62.16
74973;BME280;63529;56.320;43.990;2022-12-05T00:58:49;102947.41;;;-11.27;61.95
74973;BME280;63529;56.320;43.990;2022-12-05T01:01:20;102934.50;;;-11.27;62.03
74973;BME280;63529;56.320;43.990;2022-12-05T01:03:47;102935.41;;;-11.28;62.16
74973;BME280;63529;56.320;43.990;2022-12-05T01:06:14;102932.84;;;-11.29;61.92
74973;BME280;63529;56.320;43.990;2022-12-05T01:08:40;102930.25;;;-11.29;62.02
74973;BME280;63529;56.320;43.990;2022-12-05T01:11:07;102933.72;;;-11.30;61.87
74973;BME280;63529;56.320;43.990;2022-12-05T01:13:34;102921.78;;;-11.33;62.16
74973;BME280;63529;56.320;43.990;2022-12-05T01:16:00;102921.78;;;-11.33;61.96
74973;BME280;63529;56.320;43.990;2022-12-05T01:18:27;102921.78;;;-11.33;62.09
74973;BME280;63529;56.320;43.990;2022-12-05T01:20:53;102924.41;;;-11.34;62.20
74973;BME280;63529;56.320;43.990;2022-12-05T01:23:20;102920.19;;;-11.37;62.10
74973;BME280;63529;56.320;43.990;2022-12-05T01:25:48;102913.34;;;-11.38;61.99
74973;BME280;63529;56.320;43.990;2022-12-05T01:28:16;102915.97;;;-11.39;61.92
74973;BME280;63529;56.320;43.990;2022-12-05T01:30:44;102921.97;;;-11.39;62.19
74973;BME280;63529;56.320;43.990;2022-12-05T01:33:11;102920.31;;;-11.41;62.29
74973;BME280;63529;56.320;43.990;2022-12-05T01:35:38;102924.63;;;-11.42;62.18
74973;BME280;63529;56.320;43.990;2022-12-05T01:38:05;102934.91;;;-11.40;61.98
74973;BME280;63529;56.320;43.990;2022-12-05T01:40:32;102919.56;;;-11.45;62.24
74973;BME280;63529;56.320;43.990;2022-12-05T01:42:58;102924.66;;;-11.43;61.78
74973;BME280;63529;56.320;43.990;2022-12-05T01:45:37;102921.28;;;-11.45;62.42
74973;BME280;63529;56.320;43.990;2022-12-05T01:48:32;102928.13;;;-11.44;62.19
74973;BME280;63529;56.320;43.990;2022-12-05T01:50:57;102920.44;;;-11.46;62.29
74973;BME280;63529;56.320;43.990;2022-12-05T01:53:25;102910.16;;;-11.48;62.13
74973;BME280;63529;56.320;43.990;2022-12-05T01:55:52;102913.63;;;-11.47;62.33
74973;BME280;63529;56.320;43.990;2022-12-05T01:58:18;102906.75;;;-11.48;62.38
74973;BME280;63529;56.320;43.990;2022-12-05T02:00:45;102905.88;;;-11.47;62.32
74973;BME280;63529;56.320;43.990;2022-12-05T02:03:17;102911.03;;;-11.47;62.26
74973;BME280;63529;56.320;43.990;2022-12-05T02:05:46;102907.59;;;-11.48;62.24
74973;BME280;63529;56.320;43.990;2022-12-05T02:08:13;102907.59;;;-11.48;62.45
74973;BME280;63529;56.320;43.990;2022-12-05T02:10:42;102907.59;;;-11.48;62.29
74973;BME280;63529;56.320;43.990;2022-12-05T02:22:11;102892.13;;;-11.48;62.32
74973;BME280;63529;56.320;43.990;2022-12-05T02:30:09;102886.28;;;-11.53;62.20
74973;BME280;63529;56.320;43.990;2022-12-05T02:43:29;102877.78;;;-11.56;62.36
74973;BME280;63529;56.320;43.990;2022-12-05T02:46:00;102876.91;;;-11.55;62.64
74973;BME280;63529;56.320;43.990;2022-12-05T02:48:28;102870.84;;;-11.54;62.21
74973;BME280;63529;56.320;43.990;2022-12-05T02:50:57;102872.63;;;-11.56;62.36
74973;BME280;63529;56.320;43.990;2022-12-05T02:53:26;102874.31;;;-11.55;62.52
74973;BME280;63529;56.320;43.990;2022-12-05T02:55:54;102865.69;;;-11.54;62.60
74973;BME280;63529;56.320;43.990;2022-12-05T02:58:25;102862.31;;;-11.56;62.79
74973;BME280;63529;56.320;43.990;2022-12-05T03:00:56;102857.19;;;-11.56;62.95
74973;BME280;63529;56.320;43.990;2022-12-05T03:03:23;102857.13;;;-11.55;62.64
74973;BME280;63529;56.320;43.990;2022-12-05T03:06:24;102855.38;;;-11.54;62.93
74973;BME280;63529;56.320;43.990;2022-12-05T03:09:13;102857.94;;;-11.53;62.74
74973;BME280;63529;56.320;43.990;2022-12-05T03:11:48;102851.97;;;-11.55;62.95
74973;BME280;63529;56.320;43.990;2022-12-05T03:14:19;102848.53;;;-11.54;62.65
74973;BME280;63529;56.320;43.990;2022-12-05T03:16:53;102839.97;;;-11.56;62.71
74973;BME280;63529;56.320;43.990;2022-12-05T03:19:31;102842.50;;;-11.54;62.83
74973;BME280;63529;56.320;43.990;2022-12-05T03:22:09;102837.34;;;-11.54;62.92
74973;BME280;63529;56.320;43.990;2022-12-05T03:24:40;102841.72;;;-11.56;62.94
74973;BME280;63529;56.320;43.990;2022-12-05T03:27:23;102834.84;;;-11.56;62.75
74973;BME280;63529;56.320;43.990;2022-12-05T03:30:02;102827.91;;;-11.54;62.81
74973;BME280;63529;56.320;43.990;2022-12-05T03:32:39;102829.63;;;-11.54;62.91
74973;BME280;63529;56.320;43.990;2022-12-05T03:40:36;102830.50;;;-11.54;62.86
74973;BME280;63529;56.320;43.990;2022-12-05T03:43:16;102822.78;;;-11.55;62.80
74973;BME280;63529;56.320;43.990;2022-12-05T03:46:10;102825.34;;;-11.54;62.96
74973;BME280;63529;56.320;43.990;2022-12-05T03:51:18;102809.00;;;-11.54;62.94
74973;BME280;63529;56.320;43.990;2022-12-05T03:53:53;102813.31;;;-11.53;63.01
74973;BME280;63529;56.320;43.990;2022-12-05T03:56:38;102809.00;;;-11.54;62.91
74973;BME280;63529;56.320;43.990;2022-12-05T04:01:53;102800.41;;;-11.53;63.33
74973;BME280;63529;56.320;43.990;2022-12-05T04:04:28;102802.03;;;-11.51;63.18
74973;BME280;63529;56.320;43.990;2022-12-05T04:06:57;102805.59;;;-11.55;63.41
74973;BME280;63529;56.320;43.990;2022-12-05T04:09:34;102803.03;;;-11.55;63.03
74973;BME280;63529;56.320;43.990;2022-12-05T04:12:07;102801.25;;;-11.53;63.33
74973;BME280;63529;56.320;43.990;2022-12-05T04:14:45;102805.56;;;-11.53;63.54
74973;BME280;63529;56.320;43.990;2022-12-05T04:20:17;102800.41;;;-11.53;63.61
74973;BME280;63529;56.320;43.990;2022-12-05T04:23:05;102790.94;;;-11.53;63.47
74973;BME280;63529;56.320;43.990;2022-12-05T04:25:38;102790.13;;;-11.53;63.54
74973;BME280;63529;56.320;43.990;2022-12-05T04:39:16;102789.16;;;-11.51;63.60
74973;BME280;63529;56.320;43.990;2022-12-05T04:41:52;102790.00;;;-11.50;63.61
74973;BME280;63529;56.320;43.990;2022-12-05T04:44:25;102780.59;;;-11.51;63.82
74973;BME280;63529;56.320;43.990;2022-12-05T04:46:53;102783.13;;;-11.50;63.49
74973;BME280;63529;56.320;43.990;2022-12-05T04:49:25;102778.84;;;-11.51;63.89
74973;BME280;63529;56.320;43.990;2022-12-05T04:51:54;102782.22;;;-11.49;63.75
74973;BME280;63529;56.320;43.990;2022-12-05T04:54:28;102771.13;;;-11.51;63.71
74973;BME280;63529;56.320;43.990;2022-12-05T04:57:03;102770.19;;;-11.48;63.55
74973;BME280;63529;56.320;43.990;2022-12-05T04:59:30;102771.88;;;-11.47;63.95
74973;BME280;63529;56.320;43.990;2022-12-05T05:02:01;102773.56;;;-11.46;63.65
74973;BME280;63529;56.320;43.990;2022-12-05T05:04:34;102769.31;;;-11.47;63.74
74973;BME280;63529;56.320;43.990;2022-12-05T05:07:08;102758.06;;;-11.44;63.57
74973;BME280;63529;56.320;43.990;2022-12-05T05:09:35;102755.41;;;-11.43;63.90
74973;BME280;63529;56.320;43.990;2022-12-05T05:12:01;102748.50;;;-11.41;63.77
74973;BME280;63529;56.320;43.990;2022-12-05T05:14:27;102752.72;;;-11.38;64.10
74973;BME280;63529;56.320;43.990;2022-12-05T05:16:53;102744.00;;;-11.34;63.81
74973;BME280;63529;56.320;43.990;2022-12-05T05:19:19;102743.06;;;-11.32;63.91
74973;BME280;63529;56.320;43.990;2022-12-05T05:21:45;102732.63;;;-11.29;63.93
74973;BME280;63529;56.320;43.990;2022-12-05T05:24:11;102728.28;;;-11.27;64.20
74973;BME280;63529;56.320;43.990;2022-12-05T05:26:38;102732.44;;;-11.23;64.22
74973;BME280;63529;56.320;43.990;2022-12-05T05:29:06;102722.88;;;-11.19;64.21
74973;BME280;63529;56.320;43.990;2022-12-05T05:31:32;102720.19;;;-11.16;64.27
74973;BME280;63529;56.320;43.990;2022-12-05T05:33:58;102707.22;;;-11.13;64.20
74973;BME280;63529;56.320;43.990;2022-12-05T05:36:25;102713.09;;;-11.09;64.24
74973;BME280;63529;56.320;43.990;2022-12-05T05:38:54;102710.31;;;-11.03;63.85
74973;BME280;63529;56.320;43.990;2022-12-05T05:41:31;102711.00;;;-10.98;64.19
74973;BME280;63529;56.320;43.990;2022-12-05T05:43:57;102713.44;;;-10.93;63.99
74973;BME280;63529;56.320;43.990;2022-12-05T05:46:29;102713.31;;;-10.90;64.09
74973;BME280;63529;56.320;43.990;2022-12-05T05:48:55;102714.97;;;-10.88;63.78
74973;BME280;63529;56.320;43.990;2022-12-05T05:51:21;102718.25;;;-10.84;63.68
74973;BME280;63529;56.320;43.990;2022-12-05T05:53:48;102722.38;;;-10.79;63.66
74973;BME280;63529;56.320;43.990;2022-12-05T05:56:17;102715.38;;;-10.75;63.79
74973;BME280;63529;56.320;43.990;2022-12-05T05:58:44;102720.34;;;-10.71;63.61
74973;BME280;63529;56.320;43.990;2022-12-05T06:01:11;102718.41;;;-10.64;63.68
74973;BME280;63529;56.320;43.990;2022-12-05T06:03:37;102718.25;;;-10.59;63.67
74973;BME280;63529;56.320;43.990;2022-12-05T06:06:06;102712.94;;;-10.55;63.76
74973;BME280;63529;56.320;43.990;2022-12-05T06:08:33;102711.06;;;-10.51;63.55
74973;BME280;63529;56.320;43.990;2022-12-05T06:11:09;102718.44;;;-10.41;63.33
74973;BME280;63529;56.320;43.990;2022-12-05T06:13:38;102710.34;;;-10.31;63.45
74973;BME280;63529;56.320;43.990;2022-12-05T06:16:09;102709.94;;;-10.21;63.36
74973;BME280;63529;56.320;43.990;2022-12-05T06:18:36;102706.13;;;-10.10;63.36
74973;BME280;63529;56.320;43.990;2022-12-05T06:21:02;102698.72;;;-9.98;63.04
74973;BME280;63529;56.320;43.990;2022-12-05T06:23:30;102706.91;;;-9.87;62.76
74973;BME280;63529;56.320;43.990;2022-12-05T06:25:56;102692.81;;;-9.78;62.89
74973;BME280;63529;56.320;43.990;2022-12-05T06:28:24;102700.19;;;-9.69;62.80
74973;BME280;63529;56.320;43.990;2022-12-05T06:30:50;102687.94;;;-9.64;62.72
74973;BME280;63529;56.320;43.990;2022-12-05T06:33:17;102695.31;;;-9.54;62.51
74973;BME280;63529;56.320;43.990;2022-12-05T06:35:43;102685.25;;;-9.40;62.40
74973;BME280;63529;56.320;43.990;2022-12-05T06:38:09;102686.19;;;-9.21;62.28
74973;BME280;63529;56.320;43.990;2022-12-05T06:40:40;102686.81;;;-8.75;62.12
74973;BME280;63529;56.320;43.990;2022-12-05T06:43:06;102688.75;;;-8.60;61.39
74973;BME280;63529;56.320;43.990;2022-12-05T06:45:32;102689.63;;;-8.61;61.05
74973;BME280;63529;56.320;43.990;2022-12-05T06:47:58;102688.72;;;-8.39;61.09
74973;BME280;63529;56.320;43.990;2022-12-05T06:50:24;102691.38;;;-7.86;60.89
74973;BME280;63529;56.320;43.990;2022-12-05T06:52:50;102691.41;;;-7.50;59.88
74973;BME280;63529;56.320;43.990;2022-12-05T06:55:16;102688.25;;;-7.04;59.50
74973;BME280;63529;56.320;43.990;2022-12-05T06:57:42;102693.25;;;-6.49;58.43
74973;BME280;63529;56.320;43.990;2022-12-05T07:00:08;102691.38;;;-6.63;57.55
74973;BME280;63529;56.320;43.990;2022-12-05T07:02:53;102686.31;;;-6.66;57.90
74973;BME280;63529;56.320;43.990;2022-12-05T07:05:19;102689.47;;;-6.44;57.48
74973;BME280;63529;56.320;43.990;2022-12-05T07:07:46;102690.25;;;-6.26;57.46
74973;BME280;63529;56.320;43.990;2022-12-05T07:10:11;102680.97;;;-5.98;56.99
74973;BME280;63529;56.320;43.990;2022-12-05T07:12:38;102681.91;;;-5.99;56.92
74973;BME280;63529;56.320;43.990;2022-12-05T07:15:04;102685.00;;;-5.93;56.57
74973;BME280;63529;56.320;43.990;2022-12-05T07:17:34;102677.25;;;-5.79;56.77
74973;BME280;63529;56.320;43.990;2022-12-05T07:20:00;102676.16;;;-5.44;56.62
74973;BME280;63529;56.320;43.990;2022-12-05T07:22:26;102665.31;;;-4.93;56.02
74973;BME280;63529;56.320;43.990;2022-12-05T07:24:52;102671.56;;;-4.38;54.90
74973;BME280;63529;56.320;43.990;2022-12-05T07:27:18;102664.78;;;-4.41;54.26
74973;BME280;63529;56.320;43.990;2022-12-05T07:29:45;102661.88;;;-4.50;53.92
74973;BME280;63529;56.320;43.990;2022-12-05T07:32:13;102663.66;;;-4.65;54.03
74973;BME280;63529;56.320;43.990;2022-12-05T07:34:44;102653.50;;;-4.00;54.08
74973;BME280;63529;56.320;43.990;2022-12-05T07:37:10;102651.59;;;-2.66;53.39
74973;BME280;63529;56.320;43.990;2022-12-05T07:39:38;102648.16;;;-0.43;50.28
74973;BME280;63529;56.320;43.990;2022-12-05T07:42:04;102653.00;;;1.53;46.28
74973;BME280;63529;56.320;43.990;2022-12-05T07:44:31;102653.91;;;3.08;43.93
74973;BME280;63529;56.320;43.990;2022-12-05T07:47:02;102647.97;;;4.34;41.83
74973;BME280;63529;56.320;43.990;2022-12-05T07:49:28;102637.78;;;5.35;40.57
74973;BME280;63529;56.320;43.990;2022-12-05T07:51:54;102636.38;;;6.15;39.41
74973;BME280;63529;56.320;43.990;2022-12-05T07:54:19;102632.25;;;6.78;37.67
74973;BME280;63529;56.320;43.990;2022-12-05T07:56:45;102624.00;;;7.28;37.35
74973;BME280;63529;56.320;43.990;2022-12-05T07:59:11;102622.44;;;7.81;37.21
74973;BME280;63529;56.320;43.990;2022-12-05T08:01:37;102623.13;;;8.29;36.76
74973;BME280;63529;56.320;43.990;2022-12-05T08:04:03;102618.69;;;8.67;36.50
74973;BME280;63529;56.320;43.990;2022-12-05T08:06:29;102626.81;;;9.04;36.29
74973;BME280;63529;56.320;43.990;2022-12-05T08:08:56;102620.09;;;9.37;35.93
74973;BME280;63529;56.320;43.990;2022-12-05T08:11:28;102620.69;;;9.69;35.40
74973;BME280;63529;56.320;43.990;2022-12-05T08:13:56;102609.06;;;9.91;35.04
74973;BME280;63529;56.320;43.990;2022-12-05T08:16:24;102613.38;;;10.14;34.86
74973;BME280;63529;56.320;43.990;2022-12-05T08:19:01;102607.44;;;10.33;34.37
74973;BME280;63529;56.320;43.990;2022-12-05T08:21:28;102600.16;;;10.48;33.96
74973;BME280;63529;56.320;43.990;2022-12-05T08:23:55;102594.06;;;10.54;33.46
74973;BME280;63529;56.320;43.990;2022-12-05T08:26:29;102595.56;;;10.64;33.13
74973;BME280;63529;56.320;43.990;2022-12-05T08:28:58;102592.34;;;10.75;33.34
74973;BME280;63529;56.320;43.990;2022-12-05T08:31:26;102595.94;;;10.88;33.15
74973;BME280;63529;56.320;43.990;2022-12-05T08:33:55;102594.97;;;10.96;32.98
74973;BME280;63529;56.320;43.990;2022-12-05T08:36:21;102602.22;;;11.02;32.86
74973;BME280;63529;56.320;43.990;2022-12-05T08:38:47;102596.66;;;11.04;32.38
74973;BME280;63529;56.320;43.990;2022-12-05T08:41:15;102593.16;;;11.03;32.51
74973;BME280;63529;56.320;43.990;2022-12-05T08:43:43;102592.34;;;11.03;32.33
74973;BME280;63529;56.320;43.990;2022-12-05T08:46:10;102589.44;;;10.98;32.33
74973;BME280;63529;56.320;43.990;2022-12-05T08:48:37;102595.56;;;10.92;32.13
74973;BME280;63529;56.320;43.990;2022-12-05T08:51:05;102599.16;;;10.77;31.82
74973;BME280;63529;56.320;43.990;2022-12-05T08:53:31;102603.09;;;10.53;31.60
74973;BME280;63529;56.320;43.990;2022-12-05T08:56:01;102598.06;;;9.79;31.54
74973;BME280;63529;56.320;43.990;2022-12-05T08:58:28;102589.19;;;8.31;32.57
74973;BME280;63529;56.320;43.990;2022-12-05T09:01:05;102578.38;;;6.53;34.36
74973;BME280;63529;56.320;43.990;2022-12-05T09:03:31;102579.44;;;4.93;35.81
74973;BME280;63529;56.320;43.990;2022-12-05T09:08:33;102578.50;;;2.39;38.73
74973;BME280;63529;56.320;43.990;2022-12-05T09:11:28;102568.72;;;1.43;39.96
74973;BME280;63529;56.320;43.990;2022-12-05T09:14:02;102568.34;;;0.56;41.08
74973;BME280;63529;56.320;43.990;2022-12-05T09:16:32;102568.66;;;-0.11;41.66
74973;BME280;63529;56.320;43.990;2022-12-05T09:19:00;102561.97;;;-0.70;42.51
74973;BME280;63529;56.320;43.990;2022-12-05T09:21:29;102564.25;;;-1.21;43.22
74973;BME280;63529;56.320;43.990;2022-12-05T09:24:00;102564.38;;;-1.69;43.88
74973;BME280;63529;56.320;43.990;2022-12-05T09:26:28;102555.28;;;-2.11;44.45
74973;BME280;63529;56.320;43.990;2022-12-05T09:28:56;102555.44;;;-2.50;45.02
74973;BME280;63529;56.320;43.990;2022-12-05T09:31:24;102549.03;;;-2.82;45.47
74973;BME280;63529;56.320;43.990;2022-12-05T09:33:53;102552.84;;;-3.12;45.90
74973;BME280;63529;56.320;43.990;2022-12-05T09:36:23;102544.38;;;-3.41;46.15
74973;BME280;63529;56.320;43.990;2022-12-05T09:38:50;102547.06;;;-3.68;46.68
74973;BME280;63529;56.320;43.990;2022-12-05T09:50:14;102531.81;;;-4.68;47.86
74973;BME280;63529;56.320;43.990;2022-12-05T09:55:32;102525.63;;;-5.08;48.59
74973;BME280;63529;56.320;43.990;2022-12-05T09:58:01;102524.88;;;-5.24;49.24
74973;BME280;63529;56.320;43.990;2022-12-05T10:00:31;102517.91;;;-5.38;49.24
74973;BME280;63529;56.320;43.990;2022-12-05T10:05:46;102516.75;;;-5.62;49.86
74973;BME280;63529;56.320;43.990;2022-12-05T10:08:28;102506.41;;;-5.78;50.05
74973;BME280;63529;56.320;43.990;2022-12-05T10:14:39;102500.91;;;-6.02;50.46
74973;BME280;63529;56.320;43.990;2022-12-05T10:17:19;102492.97;;;-6.15;50.72
74973;BME280;63529;56.320;43.990;2022-12-05T10:19:49;102496.84;;;-6.22;51.14
74973;BME280;63529;56.320;43.990;2022-12-05T10:23:02;102484.28;;;-6.30;51.32
74973;BME280;63529;56.320;43.990;2022-12-05T10:25:22;102490.06;;;-6.40;51.39
74973;BME280;63529;56.320;43.990;2022-12-05T10:27:53;102488.66;;;-6.46;51.63
74973;BME280;63529;56.320;43.990;2022-12-05T10:30:29;102497.72;;;-6.53;51.81
74973;BME280;63529;56.320;43.990;2022-12-05T10:33:09;102489.38;;;-6.58;52.14
74973;BME280;63529;56.320;43.990;2022-12-05T10:35:39;102488.78;;;-6.63;52.12
74973;BME280;63529;56.320;43.990;2022-12-05T10:38:43;102489.84;;;-6.67;52.38
74973;BME280;63529;56.320;43.990;2022-12-05T10:41:08;102490.19;;;-6.73;52.54
74973;BME280;63529;56.320;43.990;2022-12-05T10:43:35;102482.69;;;-6.78;52.44
74973;BME280;63529;56.320;43.990;2022-12-05T10:46:03;102485.41;;;-6.81;52.93
74973;BME280;63529;56.320;43.990;2022-12-05T10:48:33;102478.72;;;-6.85;52.89
74973;BME280;63529;56.320;43.990;2022-12-05T10:51:00;102478.22;;;-6.92;52.87
74973;BME280;63529;56.320;43.990;2022-12-05T10:55:55;102480.38;;;-7.00;53.23
74973;BME280;63529;56.320;43.990;2022-12-05T10:58:26;102478.03;;;-7.04;53.21
74973;BME280;63529;56.320;43.990;2022-12-05T11:00:56;102474.09;;;-7.12;53.54
74973;BME280;63529;56.320;43.990;2022-12-05T11:03:29;102474.28;;;-7.15;53.69
74973;BME280;63529;56.320;43.990;2022-12-05T11:05:59;102475.44;;;-7.20;53.87
74973;BME280;63529;56.320;43.990;2022-12-05T11:08:28;102474.75;;;-7.24;53.81
74973;BME280;63529;56.320;43.990;2022-12-05T11:14:00;102476.41;;;-7.39;54.23
74973;BME280;63529;56.320;43.990;2022-12-05T11:16:33;102468.00;;;-7.44;54.59
74973;BME280;63529;56.320;43.990;2022-12-05T11:21:44;102459.97;;;-7.55;54.76
74973;BME280;63529;56.320;43.990;2022-12-05T11:24:22;102450.91;;;-7.63;54.80
74973;BME280;63529;56.320;43.990;2022-12-05T11:26:48;102446.91;;;-7.69;54.92
74973;BME280;63529;56.320;43.990;2022-12-05T11:29:34;102443.69;;;-7.74;55.14
74973;BME280;63529;56.320;43.990;2022-12-05T11:32:08;102437.97;;;-7.81;55.29
74973;BME280;63529;56.320;43.990;2022-12-05T11:37:52;102440.19;;;-7.90;55.74
74973;BME280;63529;56.320;43.990;2022-12-05T11:40:42;102429.22;;;-7.96;55.84
74973;BME280;63529;56.320;43.990;2022-12-05T11:57:22;102419.63;;;-8.28;56.68
74973;BME280;63529;56.320;43.990;2022-12-05T12:00:21;102414.78;;;-8.34;57.03
74973;BME280;63529;56.320;43.990;2022-12-05T12:09:00;102404.34;;;-8.50;57.77
74973;BME280;63529;56.320;43.990;2022-12-05T12:11:41;102408.91;;;-8.55;57.80
74973;BME280;63529;56.320;43.990;2022-12-05T12:17:20;102409.28;;;-8.63;57.92
74973;BME280;63529;56.320;43.990;2022-12-05T12:37:03;102399.00;;;-9.00;58.87
74973;BME280;63529;56.320;43.990;2022-12-05T12:42:20;102380.44;;;-9.09;59.05
74973;BME280;63529;56.320;43.990;2022-12-05T12:45:01;102375.47;;;-9.13;59.50
74973;BME280;63529;56.320;43.990;2022-12-05T12:50:18;102372.50;;;-9.23;59.46
74973;BME280;63529;56.320;43.990;2022-12-05T13:03:36;102360.13;;;-9.35;60.36
74973;BME280;63529;56.320;43.990;2022-12-05T13:06:14;102356.78;;;-9.37;60.27
74973;BME280;63529;56.320;43.990;2022-12-05T13:08:57;102347.41;;;-9.40;60.61
74973;BME280;63529;56.320;43.990;2022-12-05T13:11:27;102339.72;;;-9.41;60.53
74973;BME280;63529;56.320;43.990;2022-12-05T13:13:56;102343.16;;;-9.41;60.84
74973;BME280;63529;56.320;43.990;2022-12-05T13:16:29;102338.22;;;-9.45;60.79
74973;BME280;63529;56.320;43.990;2022-12-05T13:18:57;102350.22;;;-9.44;60.77
74973;BME280;63529;56.320;43.990;2022-12-05T13:21:23;102340.00;;;-9.47;61.09
74973;BME280;63529;56.320;43.990;2022-12-05T13:23:53;102346.00;;;-9.47;61.28
74973;BME280;63529;56.320;43.990;2022-12-05T13:26:32;102337.50;;;-9.49;61.33
74973;BME280;63529;56.320;43.990;2022-12-05T13:29:02;102336.78;;;-9.52;61.52
74973;BME280;63529;56.320;43.990;2022-12-05T13:31:42;102343.66;;;-9.51;61.41
74973;BME280;63529;56.320;43.990;2022-12-05T13:37:08;102332.75;;;-9.58;61.71
74973;BME280;63529;56.320;43.990;2022-12-05T13:39:55;102341.41;;;-9.59;61.88
74973;BME280;63529;56.320;43.990;2022-12-05T13:42:40;102331.13;;;-9.61;62.31
74973;BME280;63529;56.320;43.990;2022-12-05T13:45:10;102336.31;;;-9.61;62.35
74973;BME280;63529;56.320;43.990;2022-12-05T13:58:51;102316.75;;;-9.66;62.70
74973;BME280;63529;56.320;43.990;2022-12-05T14:03:58;102327.06;;;-9.66;62.67
74973;BME280;63529;56.320;43.990;2022-12-05T14:09:26;102312.41;;;-9.66;62.89
74973;BME280;63529;56.320;43.990;2022-12-05T14:17:41;102302.16;;;-9.67;63.09
74973;BME280;63529;56.320;43.990;2022-12-05T14:20:22;102299.66;;;-9.69;63.11
74973;BME280;63529;56.320;43.990;2022-12-05T14:29:00;102280.09;;;-9.74;63.26
74973;BME280;63529;56.320;43.990;2022-12-05T14:34:15;102280.16;;;-9.76;63.28
74973;BME280;63529;56.320;43.990;2022-12-05T14:37:07;102278.50;;;-9.77;63.34
74973;BME280;63529;56.320;43.990;2022-12-05T14:39:51;102273.44;;;-9.80;63.21
74973;BME280;63529;56.320;43.990;2022-12-05T14:45:00;102269.34;;;-9.84;63.25
74973;BME280;63529;56.320;43.990;2022-12-05T14:47:29;102255.66;;;-9.86;63.43
74973;BME280;63529;56.320;43.990;2022-12-05T14:49:59;102256.63;;;-9.89;63.52
74973;BME280;63529;56.320;43.990;2022-12-05T14:52:30;102253.22;;;-9.89;63.44
74973;BME280;63529;56.320;43.990;2022-12-05T14:55:03;102254.13;;;-9.90;63.29
74973;BME280;63529;56.320;43.990;2022-12-05T14:57:31;102248.19;;;-9.92;63.66
74973;BME280;63529;56.320;43.990;2022-12-05T15:00:03;102249.94;;;-9.93;63.64
74973;BME280;63529;56.320;43.990;2022-12-05T15:02:35;102241.50;;;-9.96;63.72
74973;BME280;63529;56.320;43.990;2022-12-05T15:05:25;102239.81;;;-9.97;63.56
74973;BME280;63529;56.320;43.990;2022-12-05T15:07:55;102242.53;;;-10.00;63.72
74973;BME280;63529;56.320;43.990;2022-12-05T15:10:26;102227.19;;;-10.03;63.65
74973;BME280;63529;56.320;43.990;2022-12-05T15:12:56;102226.41;;;-10.05;63.52
74973;BME280;63529;56.320;43.990;2022-12-05T15:16:06;102223.06;;;-10.07;63.72
74973;BME280;63529;56.320;43.990;2022-12-05T15:18:39;102222.31;;;-10.09;63.69
74973;BME280;63529;56.320;43.990;2022-12-05T15:23:59;102214.69;;;-10.13;63.88
74973;BME280;63529;56.320;43.990;2022-12-05T15:26:39;102207.00;;;-10.14;63.82
74973;BME280;63529;56.320;43.990;2022-12-05T15:31:43;102204.56;;;-10.17;64.15
74973;BME280;63529;56.320;43.990;2022-12-05T15:40:10;102203.72;;;-10.18;63.97
74973;BME280;63529;56.320;43.990;2022-12-05T15:42:50;102205.53;;;-10.20;63.88
74973;BME280;63529;56.320;43.990;2022-12-05T15:45:26;102203.03;;;-10.21;64.05
74973;BME280;63529;56.320;43.990;2022-12-05T15:48:14;102204.03;;;-10.24;64.02
74973;BME280;63529;56.320;43.990;2022-12-05T15:50:48;102200.69;;;-10.26;64.13
74973;BME280;63529;56.320;43.990;2022-12-05T15:53:28;102187.94;;;-10.29;64.23
74973;BME280;63529;56.320;43.990;2022-12-05T15:58:44;102187.13;;;-10.31;64.30
74973;BME280;63529;56.320;43.990;2022-12-05T16:01:24;102181.28;;;-10.34;64.50
74973;BME280;63529;56.320;43.990;2022-12-05T16:03:59;102186.47;;;-10.34;64.19
74973;BME280;63529;56.320;43.990;2022-12-05T16:06:41;102166.75;;;-10.37;64.39